Time;durP1;ratioP1;P1;durP2;ratioP2;P2;SDS_P1;SDS_P2;PMS_P1;PMS_P2;Temp;Humidity;BMP_temperature;BMP_pressure;BME280_temperature;BME280_humidity;BME280_pressure;Samples;Min_cycle;Max_cycle;Signal;HPM_P1;HPM_P2
2023/04/17 00:00:08;;;;;;;27.50;19.60;;;11.20;99.90;;;;;;5000121;28;20178;-69
2023/04/17 00:02:38;;;;;;;25.05;18.30;;;11.20;99.90;;;;;;5000345;28;20289;-68
2023/04/17 00:05:07;;;;;;;26.00;18.67;;;11.20;99.90;;;;;;4995931;28;20171;-69
2023/04/17 00:07:33;;;;;;;24.65;18.88;;;11.20;99.90;;;;;;5008151;28;20174;-68
2023/04/17 00:10:04;;;;;;;25.27;18.77;;;11.20;99.90;;;;;;5000150;28;20179;-69
2023/04/17 00:12:30;;;;;;;25.58;19.77;;;11.20;99.90;;;;;;5001542;28;20230;-68
2023/04/17 00:14:55;;;;;;;32.42;21.23;;;11.20;99.90;;;;;;4997319;28;20179;-68
2023/04/17 00:17:21;;;;;;;27.63;19.48;;;11.20;99.90;;;;;;5014377;28;20182;-68
2023/04/17 00:19:46;;;;;;;28.83;20.13;;;11.20;99.90;;;;;;5016196;28;20221;-68
2023/04/17 00:22:14;;;;;;;27.95;20.70;;;11.20;99.90;;;;;;5000283;28;20265;-68
2023/04/17 00:24:40;;;;;;;27.27;19.80;;;11.20;99.90;;;;;;5000104;28;20207;-68
2023/04/17 00:27:06;;;;;;;28.35;20.23;;;11.20;99.90;;;;;;5003397;28;20205;-67
2023/04/17 00:29:32;;;;;;;26.33;19.05;;;11.20;99.90;;;;;;5001879;28;20175;-69
2023/04/17 00:32:00;;;;;;;28.75;19.10;;;11.20;99.90;;;;;;5011923;28;20178;-68
2023/04/17 00:34:26;;;;;;;27.48;20.02;;;11.20;99.90;;;;;;5000080;28;20229;-69
2023/04/17 00:36:52;;;;;;;29.65;21.17;;;11.20;99.90;;;;;;5002884;28;20198;-68
2023/04/17 00:39:17;;;;;;;31.00;20.70;;;11.20;99.90;;;;;;5001783;28;20175;-67
2023/04/17 00:41:43;;;;;;;27.73;19.45;;;11.20;99.90;;;;;;4998104;28;20206;-68
2023/04/17 00:44:11;;;;;;;28.77;19.92;;;11.20;99.90;;;;;;5001394;28;20226;-68
2023/04/17 00:46:39;;;;;;;27.15;20.05;;;11.20;99.90;;;;;;5012145;28;20171;-69
2023/04/17 00:49:06;;;;;;;26.55;19.63;;;11.30;99.90;;;;;;4998827;28;20333;-68
2023/04/17 00:51:35;;;;;;;30.95;21.13;;;11.30;99.90;;;;;;4996736;28;20175;-69
2023/04/17 00:54:00;;;;;;;28.52;20.65;;;11.30;99.90;;;;;;5008264;28;20178;-68
2023/04/17 00:56:27;;;;;;;27.40;20.10;;;11.30;99.90;;;;;;4998522;28;20250;-69
2023/04/17 00:58:54;;;;;;;28.27;20.17;;;11.30;99.90;;;;;;4996884;28;20262;-69
2023/04/17 01:01:21;;;;;;;30.73;21.23;;;11.30;99.90;;;;;;5015717;28;20193;-67
2023/04/17 01:03:48;;;;;;;27.92;20.48;;;11.30;99.90;;;;;;5013405;28;20238;-69
2023/04/17 01:06:17;;;;;;;27.67;19.92;;;11.30;99.90;;;;;;5013959;28;20198;-68
2023/04/17 01:08:43;;;;;;;30.10;21.00;;;11.30;99.90;;;;;;5016046;28;20187;-69
2023/04/17 01:11:09;;;;;;;28.67;20.67;;;11.30;99.90;;;;;;5001955;28;20199;-68
2023/04/17 01:13:50;;;;;;;34.17;22.02;;;11.30;99.90;;;;;;5015731;28;20206;-69
2023/04/17 01:16:19;;;;;;;32.30;22.10;;;11.30;99.90;;;;;;5007473;28;20182;-69
2023/04/17 01:18:47;;;;;;;35.63;23.08;;;11.30;99.90;;;;;;5015953;28;20289;-69
2023/04/17 01:21:17;;;;;;;33.28;23.15;;;11.30;99.90;;;;;;5019833;28;20198;-68
2023/04/17 01:23:47;;;;;;;35.75;24.30;;;11.30;99.90;;;;;;5004639;28;20202;-69
2023/04/17 01:26:26;;;;;;;37.65;24.35;;;11.30;99.90;;;;;;4999112;28;20189;-69
2023/04/17 01:28:53;;;;;;;34.30;23.52;;;11.30;99.90;;;;;;5017807;28;20209;-69
2023/04/17 01:31:20;;;;;;;33.53;24.20;;;11.30;99.90;;;;;;5004306;28;20186;-69
2023/04/17 01:33:46;;;;;;;34.53;22.65;;;11.30;99.90;;;;;;4993666;28;20183;-69
2023/04/17 01:36:11;;;;;;;33.75;23.60;;;11.20;99.90;;;;;;5005900;28;20239;-69
2023/04/17 01:38:37;;;;;;;32.85;23.42;;;11.30;99.90;;;;;;4998622;28;20171;-69
2023/04/17 01:41:08;;;;;;;36.35;23.60;;;11.20;99.90;;;;;;4995855;28;20182;-69
2023/04/17 01:43:42;;;;;;;33.05;22.90;;;11.20;99.90;;;;;;4993576;28;20206;-68
2023/04/17 01:46:08;;;;;;;33.15;22.67;;;11.20;99.90;;;;;;5008289;28;20183;-70
2023/04/17 01:48:35;;;;;;;34.90;23.52;;;11.30;99.90;;;;;;4996620;28;20180;-69
2023/04/17 01:51:00;;;;;;;32.97;22.40;;;11.30;99.90;;;;;;4998622;28;20210;-69
2023/04/17 01:53:28;;;;;;;34.33;23.27;;;11.30;99.90;;;;;;5015520;28;20170;-69
2023/04/17 01:55:54;;;;;;;34.40;22.83;;;11.30;99.90;;;;;;5001372;28;20182;-70
2023/04/17 01:58:20;;;;;;;34.65;23.80;;;11.30;99.90;;;;;;4999644;28;20284;-68
2023/04/17 02:00:49;;;;;;;39.60;24.95;;;11.20;99.90;;;;;;5015405;28;20195;-71
2023/04/17 02:03:15;;;;;;;33.13;23.08;;;11.30;99.90;;;;;;4998604;28;20256;-70
2023/04/17 02:05:43;;;;;;;37.53;24.42;;;11.30;99.90;;;;;;5014184;28;20202;-70
2023/04/17 02:08:16;;;;;;;39.25;24.67;;;11.30;99.90;;;;;;5025242;28;20181;-72
2023/04/17 02:10:43;;;;;;;38.08;24.30;;;11.30;99.90;;;;;;5014275;28;20182;-71
2023/04/17 02:13:11;;;;;;;35.08;23.98;;;11.30;99.90;;;;;;5001646;28;20216;-71
2023/04/17 02:15:37;;;;;;;37.70;24.70;;;11.20;99.90;;;;;;4992009;28;20175;-70
2023/04/17 02:18:05;;;;;;;39.30;25.95;;;11.20;99.90;;;;;;5005579;28;20212;-67
2023/04/17 02:20:32;;;;;;;40.75;25.65;;;11.20;99.90;;;;;;5003159;28;20170;-69
2023/04/17 02:23:01;;;;;;;39.38;25.80;;;11.20;99.90;;;;;;5014672;28;20209;-71
2023/04/17 02:25:30;;;;;;;36.47;24.98;;;11.20;99.90;;;;;;4998881;28;20171;-71
2023/04/17 02:27:56;;;;;;;36.50;25.10;;;11.20;99.90;;;;;;5015236;28;20170;-68
2023/04/17 02:30:25;;;;;;;38.45;24.67;;;11.20;99.90;;;;;;4997731;28;20171;-70
2023/04/17 02:32:52;;;;;;;38.15;25.13;;;11.20;99.90;;;;;;5009873;28;20202;-71
2023/04/17 02:35:23;;;;;;;36.58;24.92;;;11.20;99.90;;;;;;4995608;28;20217;-66
2023/04/17 02:37:54;;;;;;;36.72;24.75;;;11.20;99.90;;;;;;5011502;28;20183;-71
2023/04/17 02:40:22;;;;;;;34.05;23.73;;;11.10;99.90;;;;;;5028594;28;20171;-71
2023/04/17 02:42:47;;;;;;;34.17;24.48;;;11.20;99.90;;;;;;5014139;28;20703;-69
2023/04/17 02:45:15;;;;;;;36.72;24.70;;;11.20;99.90;;;;;;4997539;28;20285;-68
2023/04/17 02:47:41;;;;;;;35.90;24.52;;;11.20;99.90;;;;;;4995070;28;20183;-71
2023/04/17 02:50:08;;;;;;;37.15;24.50;;;11.20;99.90;;;;;;5016789;28;20174;-71
2023/04/17 02:52:35;;;;;;;37.47;26.20;;;11.20;99.90;;;;;;5010079;28;20206;-69
2023/04/17 02:55:01;;;;;;;35.10;24.45;;;11.20;99.90;;;;;;5004983;28;20237;-69
2023/04/17 02:57:27;;;;;;;36.15;24.83;;;11.20;99.90;;;;;;4999736;28;20171;-71
2023/04/17 02:59:52;;;;;;;36.92;23.88;;;11.20;99.90;;;;;;5014436;28;20179;-71
2023/04/17 03:02:20;;;;;;;36.40;24.33;;;11.20;99.90;;;;;;4998241;28;20294;-71
2023/04/17 03:04:53;;;;;;;42.10;25.90;;;11.20;99.90;;;;;;5018460;28;20214;-71
2023/04/17 03:07:26;;;;;;;37.50;25.45;;;11.30;99.90;;;;;;4998149;28;20174;-70
2023/04/17 03:09:52;;;;;;;35.10;23.67;;;11.20;99.90;;;;;;4998188;28;20171;-71
2023/04/17 03:12:20;;;;;;;34.92;24.83;;;11.20;99.90;;;;;;4995625;28;20398;-69
2023/04/17 03:14:50;;;;;;;36.70;25.38;;;11.30;99.90;;;;;;5010162;28;20266;-71
2023/04/17 03:17:19;;;;;;;36.08;24.80;;;11.20;99.90;;;;;;5016580;28;20264;-66
2023/04/17 03:19:47;;;;;;;34.65;24.60;;;11.20;99.90;;;;;;5003468;28;20243;-69
2023/04/17 03:22:15;;;;;;;36.47;24.70;;;11.20;99.90;;;;;;5002314;28;20274;-70
2023/04/17 03:24:40;;;;;;;35.55;23.98;;;11.30;99.90;;;;;;5014811;28;20207;-68
2023/04/17 03:27:06;;;;;;;38.45;25.58;;;11.20;99.90;;;;;;5005181;28;20205;-72
2023/04/17 03:29:32;;;;;;;38.22;25.63;;;11.30;99.90;;;;;;5024825;28;20189;-71
2023/04/17 03:31:57;;;;;;;33.88;24.70;;;11.20;99.90;;;;;;5002004;28;20232;-71
2023/04/17 03:34:28;;;;;;;37.72;25.92;;;11.20;99.90;;;;;;5017827;28;20183;-71
2023/04/17 03:36:54;;;;;;;34.95;24.15;;;11.20;99.90;;;;;;5001081;28;20213;-69
2023/04/17 03:39:22;;;;;;;39.92;25.20;;;11.30;99.90;;;;;;5001724;28;20206;-71
2023/04/17 03:41:52;;;;;;;36.88;26.30;;;11.30;99.90;;;;;;5002785;28;20179;-71
2023/04/17 03:44:20;;;;;;;37.17;24.55;;;11.30;99.90;;;;;;5017307;28;20206;-70
2023/04/17 03:46:45;;;;;;;39.17;27.00;;;11.30;99.90;;;;;;5001125;28;20171;-71
2023/04/17 03:49:14;;;;;;;35.03;24.83;;;11.40;99.90;;;;;;5009950;28;20293;-70
2023/04/17 03:51:41;;;;;;;38.35;25.05;;;11.40;99.90;;;;;;5003564;28;20198;-71
2023/04/17 03:54:07;;;;;;;34.58;23.95;;;11.40;99.90;;;;;;5026757;28;20201;-71
2023/04/17 03:56:33;;;;;;;34.38;24.75;;;11.40;99.90;;;;;;5001194;28;20182;-70
2023/04/17 03:58:58;;;;;;;33.58;24.70;;;11.40;99.90;;;;;;5010234;28;20186;-70
2023/04/17 04:01:27;;;;;;;34.53;24.50;;;11.40;99.90;;;;;;5016054;28;20186;-67
2023/04/17 04:03:55;;;;;;;34.65;24.52;;;11.40;99.90;;;;;;5000680;28;20202;-71
2023/04/17 04:06:21;;;;;;;37.15;25.73;;;11.40;99.90;;;;;;5014299;28;20175;-70
2023/04/17 04:08:48;;;;;;;35.45;23.92;;;11.50;99.90;;;;;;4997747;28;20238;-71
2023/04/17 04:11:14;;;;;;;35.38;24.15;;;11.50;99.90;;;;;;5011651;28;20238;-68
2023/04/17 04:13:40;;;;;;;35.03;24.88;;;11.50;99.90;;;;;;5002053;28;20270;-70
2023/04/17 04:16:06;;;;;;;36.15;25.25;;;11.50;99.90;;;;;;5009799;28;20202;-71
2023/04/17 04:18:34;;;;;;;35.55;25.30;;;11.50;99.90;;;;;;5000263;28;20221;-70
2023/04/17 04:21:00;;;;;;;34.35;24.80;;;11.50;99.90;;;;;;5000691;28;20269;-68
2023/04/17 04:23:29;;;;;;;35.97;25.33;;;11.50;99.90;;;;;;4999997;28;20289;-69
2023/04/17 04:26:00;;;;;;;35.22;26.25;;;11.50;99.90;;;;;;5015345;28;20183;-67
2023/04/17 04:28:29;;;;;;;32.38;24.60;;;11.50;99.90;;;;;;4998346;28;20175;-66
2023/04/17 04:30:57;;;;;;;36.58;26.23;;;11.50;99.90;;;;;;5001330;28;20199;-66
2023/04/17 04:33:23;;;;;;;37.38;26.08;;;11.60;99.90;;;;;;4999724;28;20175;-66
2023/04/17 04:35:50;;;;;;;34.15;24.75;;;11.50;99.90;;;;;;5016300;28;20237;-71
2023/04/17 04:38:16;;;;;;;36.17;25.95;;;11.50;99.90;;;;;;5009638;28;20191;-70
2023/04/17 04:40:51;;;;;;;37.65;25.85;;;11.50;99.90;;;;;;5012155;28;20179;-70
2023/04/17 04:43:20;;;;;;;34.88;25.13;;;11.50;99.90;;;;;;5018091;28;20205;-70
2023/04/17 04:45:50;;;;;;;36.10;26.42;;;11.50;99.90;;;;;;4998718;28;20175;-70
2023/04/17 04:48:16;;;;;;;37.22;26.33;;;11.40;99.90;;;;;;5019344;28;20203;-66
2023/04/17 04:50:41;;;;;;;34.10;25.80;;;11.50;99.90;;;;;;5015930;28;20167;-70
2023/04/17 04:53:09;;;;;;;35.33;26.00;;;11.40;99.90;;;;;;4998211;28;20270;-69
2023/04/17 04:55:37;;;;;;;32.58;24.90;;;11.40;99.90;;;;;;5002676;28;20203;-70
2023/04/17 04:58:03;;;;;;;33.08;24.95;;;11.40;99.90;;;;;;4997515;28;20175;-67
2023/04/17 05:00:28;;;;;;;31.33;24.48;;;11.40;99.90;;;;;;5003427;28;20187;-70
2023/04/17 05:02:54;;;;;;;33.75;24.10;;;11.40;99.90;;;;;;4999613;28;20241;-69
2023/04/17 05:05:20;;;;;;;34.25;24.52;;;11.40;99.90;;;;;;5014472;28;20182;-70
2023/04/17 05:07:45;;;;;;;34.00;25.00;;;11.40;99.90;;;;;;4991898;28;20180;-70
2023/04/17 05:10:11;;;;;;;33.63;24.70;;;11.50;99.90;;;;;;5015437;28;20198;-70
2023/04/17 05:12:36;;;;;;;32.78;23.55;;;11.40;99.90;;;;;;4998637;28;20209;-70
2023/04/17 05:15:02;;;;;;;32.75;24.05;;;11.40;99.90;;;;;;4996276;28;20202;-70
2023/04/17 05:17:33;;;;;;;30.00;23.33;;;11.50;99.90;;;;;;4997114;28;20226;-70
2023/04/17 05:19:58;;;;;;;31.20;22.75;;;11.50;99.90;;;;;;4998950;28;20237;-72
2023/04/17 05:22:26;;;;;;;35.92;25.02;;;11.50;99.90;;;;;;4996972;28;20249;-71
2023/04/17 05:24:54;;;;;;;34.92;24.50;;;11.50;99.90;;;;;;5013340;28;20213;-67
2023/04/17 05:27:25;;;;;;;35.03;23.75;;;11.50;99.90;;;;;;4998410;28;20181;-71
2023/04/17 05:29:53;;;;;;;31.67;24.13;;;11.50;99.90;;;;;;4997565;28;20238;-70
2023/04/17 05:32:19;;;;;;;28.30;22.90;;;11.50;99.90;;;;;;4998559;28;20261;-71
2023/04/17 05:34:45;;;;;;;29.58;23.35;;;11.40;99.90;;;;;;4998833;28;20297;-71
2023/04/17 05:37:13;;;;;;;28.17;22.50;;;11.40;99.90;;;;;;5001516;28;20202;-71
2023/04/17 05:39:39;;;;;;;29.08;22.70;;;11.50;99.90;;;;;;5011153;28;20194;-69
2023/04/17 05:42:04;;;;;;;33.25;24.55;;;11.50;99.90;;;;;;5014757;28;20202;-69
2023/04/17 05:44:31;;;;;;;29.48;22.35;;;11.50;99.90;;;;;;5014896;28;20212;-71
2023/04/17 05:46:58;;;;;;;27.50;22.23;;;11.50;99.90;;;;;;5014737;28;20264;-70
2023/04/17 05:49:25;;;;;;;30.92;22.38;;;11.50;99.90;;;;;;5018573;28;20210;-71
2023/04/17 05:51:51;;;;;;;27.90;22.42;;;11.50;99.90;;;;;;5000727;28;20197;-72
2023/04/17 05:54:16;;;;;;;26.55;21.02;;;11.50;99.90;;;;;;5006764;28;20183;-70
2023/04/17 05:56:42;;;;;;;29.42;22.42;;;11.50;99.90;;;;;;4994716;28;20203;-71
2023/04/17 05:59:08;;;;;;;32.13;23.77;;;11.50;99.90;;;;;;4994898;28;20179;-68
2023/04/17 06:01:34;;;;;;;28.08;22.38;;;11.50;99.90;;;;;;4994906;28;20171;-68
2023/04/17 06:04:00;;;;;;;29.23;22.50;;;11.50;99.90;;;;;;5011091;28;20202;-71
2023/04/17 06:06:26;;;;;;;28.45;21.88;;;11.50;99.90;;;;;;5014498;28;20198;-71
2023/04/17 06:08:53;;;;;;;28.52;21.30;;;11.50;99.90;;;;;;5013680;28;20186;-68
2023/04/17 06:11:19;;;;;;;27.45;21.58;;;11.50;99.90;;;;;;4997696;28;20477;-70
2023/04/17 06:13:46;;;;;;;27.05;22.02;;;11.50;99.90;;;;;;4994554;28;20229;-69
2023/04/17 06:16:12;;;;;;;30.90;22.75;;;11.60;99.90;;;;;;4994726;28;20206;-70
2023/04/17 06:18:40;;;;;;;25.77;20.52;;;11.60;99.90;;;;;;4978769;28;20281;-70
2023/04/17 06:21:09;;;;;;;27.73;20.75;;;11.60;99.90;;;;;;5010817;28;20265;-70
2023/04/17 06:23:39;;;;;;;29.05;23.05;;;11.60;99.90;;;;;;4998984;28;20194;-70
2023/04/17 06:26:05;;;;;;;28.60;22.33;;;11.70;99.90;;;;;;5002331;28;20198;-68
2023/04/17 06:28:31;;;;;;;26.75;21.35;;;11.70;99.90;;;;;;5013638;28;20183;-69
2023/04/17 06:30:59;;;;;;;28.00;21.58;;;11.70;99.90;;;;;;4994201;28;20171;-70
2023/04/17 06:33:27;;;;;;;30.05;22.13;;;11.80;99.90;;;;;;5001899;28;20245;-69
2023/04/17 06:35:52;;;;;;;28.65;22.05;;;11.80;99.90;;;;;;5008394;28;20185;-68
2023/04/17 06:38:20;;;;;;;26.90;21.08;;;11.80;99.90;;;;;;4994192;28;20179;-69
2023/04/17 06:40:46;;;;;;;26.77;21.00;;;12.00;99.90;;;;;;5015643;28;20261;-69
2023/04/17 06:43:14;;;;;;;24.92;19.90;;;12.00;99.90;;;;;;5013963;28;20289;-68
2023/04/17 06:45:41;;;;;;;23.42;19.38;;;12.00;99.90;;;;;;4997834;28;20207;-69
2023/04/17 06:48:07;;;;;;;26.05;20.38;;;12.00;99.90;;;;;;4996911;28;23239;-68
2023/04/17 06:50:33;;;;;;;24.77;19.10;;;12.10;99.90;;;;;;5015175;28;20242;-69
2023/04/17 06:52:58;;;;;;;23.58;18.25;;;12.10;99.90;;;;;;4985329;28;20226;-69
2023/04/17 06:55:25;;;;;;;22.77;19.23;;;12.10;99.90;;;;;;4998859;28;20247;-68
2023/04/17 06:57:51;;;;;;;23.20;18.05;;;12.10;99.90;;;;;;5018114;28;20174;-69
2023/04/17 07:00:17;;;;;;;22.73;18.75;;;12.10;99.90;;;;;;5001770;28;20202;-68
2023/04/17 07:02:43;;;;;;;22.23;17.90;;;12.10;99.90;;;;;;5018277;28;20174;-69
2023/04/17 07:05:09;;;;;;;21.88;18.42;;;12.20;99.90;;;;;;5017698;28;20193;-69
2023/04/17 07:07:37;;;;;;;23.92;18.38;;;12.10;99.90;;;;;;5025230;28;20193;-69
2023/04/17 07:10:05;;;;;;;21.77;17.67;;;12.20;99.90;;;;;;4998605;28;20190;-69
2023/04/17 07:12:34;;;;;;;21.25;17.05;;;12.20;99.90;;;;;;5000564;28;20175;-70
2023/04/17 07:15:00;;;;;;;20.60;17.15;;;12.20;99.90;;;;;;5005288;28;20185;-71
2023/04/17 07:17:26;;;;;;;19.65;16.30;;;12.20;99.90;;;;;;5017560;28;20209;-70
2023/04/17 07:19:52;;;;;;;19.63;16.15;;;12.30;99.90;;;;;;5001358;28;20278;-69
2023/04/17 07:22:17;;;;;;;18.25;15.32;;;12.30;99.90;;;;;;5008928;28;20193;-70
2023/04/17 07:24:43;;;;;;;19.10;15.13;;;12.30;99.90;;;;;;5012137;28;20241;-70
2023/04/17 07:27:11;;;;;;;19.88;15.75;;;12.30;99.90;;;;;;4981610;28;20199;-70
2023/04/17 07:29:36;;;;;;;18.10;14.68;;;12.30;99.90;;;;;;5009299;28;20189;-70
2023/04/17 07:32:05;;;;;;;18.63;15.25;;;12.30;99.90;;;;;;5012632;28;20242;-69
2023/04/17 07:34:33;;;;;;;18.70;15.13;;;12.30;99.90;;;;;;5011938;28;20490;-70
2023/04/17 07:37:00;;;;;;;18.05;14.80;;;12.20;99.90;;;;;;5003015;28;20206;-64
2023/04/17 07:39:29;;;;;;;17.30;14.40;;;12.20;99.90;;;;;;4999736;28;20211;-68
2023/04/17 07:41:55;;;;;;;20.50;15.32;;;12.20;99.90;;;;;;5017794;28;20202;-70
2023/04/17 07:44:23;;;;;;;18.05;14.40;;;12.20;99.90;;;;;;5006740;28;20234;-70
2023/04/17 07:46:49;;;;;;;18.30;14.35;;;12.20;99.90;;;;;;5014386;28;20179;-69
2023/04/17 07:49:14;;;;;;;18.92;15.07;;;12.20;99.90;;;;;;4998972;28;20217;-69
2023/04/17 07:51:40;;;;;;;19.27;15.20;;;12.20;99.90;;;;;;4996762;28;20187;-67
2023/04/17 07:54:11;;;;;;;17.63;14.50;;;12.20;99.90;;;;;;4997819;28;20180;-70
2023/04/17 07:56:38;;;;;;;18.10;14.57;;;12.30;99.90;;;;;;4997777;28;20194;-70
2023/04/17 07:59:04;;;;;;;17.80;15.00;;;12.30;99.90;;;;;;5010861;28;20178;-70
2023/04/17 08:01:32;;;;;;;17.63;15.63;;;12.40;99.90;;;;;;4997462;28;20209;-70
2023/04/17 08:04:03;;;;;;;18.48;15.38;;;12.50;99.90;;;;;;5000732;28;20205;-68
2023/04/17 08:06:28;;;;;;;20.65;15.20;;;12.50;99.90;;;;;;5010482;28;20178;-69
2023/04/17 08:08:54;;;;;;;19.60;15.82;;;12.60;99.90;;;;;;5011294;28;20191;-69
2023/04/17 08:11:22;;;;;;;18.58;15.02;;;12.70;99.90;;;;;;5000641;28;20183;-70
2023/04/17 08:13:47;;;;;;;19.13;15.45;;;12.80;99.90;;;;;;5000627;28;20182;-70
2023/04/17 08:16:15;;;;;;;17.05;14.43;;;12.90;99.90;;;;;;5017280;28;20289;-70
2023/04/17 08:18:43;;;;;;;19.20;16.15;;;12.90;99.90;;;;;;5016920;28;20218;-69
2023/04/17 08:21:09;;;;;;;17.63;14.75;;;13.00;99.90;;;;;;5017743;28;20226;-70
2023/04/17 08:23:35;;;;;;;18.67;15.10;;;13.20;99.90;;;;;;4984629;28;20290;-69
2023/04/17 08:26:03;;;;;;;18.52;15.20;;;13.30;99.90;;;;;;4997033;28;20179;-69
2023/04/17 08:28:30;;;;;;;17.20;14.30;;;13.30;99.90;;;;;;4997511;28;20218;-71
2023/04/17 08:30:56;;;;;;;15.73;14.00;;;13.40;99.90;;;;;;5018794;28;20178;-69
2023/04/17 08:33:22;;;;;;;17.42;14.85;;;13.40;99.90;;;;;;4996082;28;20180;-70
2023/04/17 08:35:52;;;;;;;17.13;13.88;;;13.50;99.90;;;;;;4998620;28;20211;-71
2023/04/17 08:38:18;;;;;;;17.52;14.07;;;13.50;99.90;;;;;;5012311;28;20229;-67
2023/04/17 08:40:48;;;;;;;15.88;13.35;;;13.40;99.90;;;;;;4997508;28;20218;-69
2023/04/17 08:43:19;;;;;;;16.13;13.77;;;13.50;99.90;;;;;;4996667;28;20218;-70
2023/04/17 08:45:55;;;;;;;17.17;14.55;;;13.60;99.90;;;;;;4981107;28;20175;-65
2023/04/17 08:48:22;;;;;;;16.05;13.57;;;13.60;99.90;;;;;;5016578;28;20236;-69
2023/04/17 08:50:49;;;;;;;17.77;13.18;;;13.70;99.90;;;;;;5016545;28;20203;-70
2023/04/17 08:53:19;;;;;;;14.73;12.70;;;13.80;99.90;;;;;;5016061;28;20175;-69
2023/04/17 08:55:47;;;;;;;15.88;13.65;;;13.80;99.90;;;;;;5000117;28;20178;-70
2023/04/17 08:58:16;;;;;;;14.30;11.82;;;13.90;99.90;;;;;;5015785;28;20178;-70
2023/04/17 09:00:44;;;;;;;16.35;13.73;;;14.00;99.90;;;;;;4999909;28;20202;-69
2023/04/17 09:03:12;;;;;;;14.57;11.80;;;14.00;99.90;;;;;;4996269;28;20199;-70
2023/04/17 09:05:41;;;;;;;15.00;12.80;;;14.10;99.90;;;;;;4996637;28;20243;-69
2023/04/17 09:08:16;;;;;;;15.88;13.35;;;14.10;99.90;;;;;;5000138;28;20186;-69
2023/04/17 09:10:43;;;;;;;13.50;12.05;;;14.20;99.90;;;;;;5016114;28;20190;-70
2023/04/17 09:13:13;;;;;;;16.08;12.55;;;14.30;99.90;;;;;;5004448;28;20261;-69
2023/04/17 09:15:42;;;;;;;16.13;12.50;;;14.40;99.90;;;;;;5011378;28;20217;-70
2023/04/17 09:18:29;;;;;;;15.20;12.20;;;14.40;99.90;;;;;;5015729;28;20210;-69
2023/04/17 09:20:59;;;;;;;14.70;11.75;;;14.40;99.90;;;;;;4996729;28;20175;-69
2023/04/17 09:23:26;;;;;;;14.35;12.65;;;14.40;99.90;;;;;;5003968;28;20214;-69
2023/04/17 09:26:10;;;;;;;15.27;12.52;;;14.50;99.90;;;;;;4999619;28;20171;-70
2023/04/17 09:28:39;;;;;;;14.20;12.32;;;14.50;99.90;;;;;;4992171;28;20183;-69
2023/04/17 09:31:15;;;;;;;16.10;12.35;;;14.50;99.90;;;;;;5010115;28;20298;-70
2023/04/17 09:33:55;;;;;;;14.65;11.75;;;14.50;99.90;;;;;;4985780;28;20225;-69
2023/04/17 09:36:21;;;;;;;13.30;11.35;;;14.60;99.90;;;;;;4982662;28;20213;-67
2023/04/17 09:38:47;;;;;;;13.40;10.80;;;14.60;99.90;;;;;;5002984;28;20202;-69
2023/04/17 09:41:27;;;;;;;15.57;10.43;;;14.70;99.90;;;;;;4991677;28;20208;-69
2023/04/17 09:44:00;;;;;;;12.32;10.55;;;14.70;99.90;;;;;;4995612;28;20209;-70
2023/04/17 09:46:40;;;;;;;11.10;9.70;;;14.90;99.90;;;;;;5014439;28;20175;-69
2023/04/17 09:49:15;;;;;;;10.70;9.07;;;15.10;99.90;;;;;;5011649;28;20171;-69
2023/04/17 09:51:41;;;;;;;10.88;9.27;;;15.20;99.90;;;;;;4995874;28;20206;-70
2023/04/17 09:54:13;;;;;;;10.52;9.00;;;15.30;99.90;;;;;;5010859;28;20206;-69
2023/04/17 09:56:40;;;;;;;10.13;8.65;;;15.40;99.90;;;;;;5009568;28;20261;-70
2023/04/17 09:59:09;;;;;;;9.73;8.70;;;15.50;99.90;;;;;;4995469;28;20206;-69
2023/04/17 10:01:39;;;;;;;10.35;8.50;;;15.60;99.90;;;;;;5004310;28;20254;-69
2023/04/17 10:04:07;;;;;;;9.05;7.88;;;15.70;99.90;;;;;;5014820;28;20205;-69
2023/04/17 10:06:36;;;;;;;9.70;8.70;;;15.80;99.90;;;;;;4998004;28;20259;-69
2023/04/17 10:09:04;;;;;;;9.80;8.63;;;16.20;99.90;;;;;;5015180;28;20226;-64
2023/04/17 10:11:40;;;;;;;10.18;8.45;;;16.70;99.90;;;;;;5015360;28;20277;-65
2023/04/17 10:14:18;;;;;;;9.70;7.70;;;17.20;99.90;;;;;;4996719;28;20198;-65
2023/04/17 10:16:47;;;;;;;8.20;7.28;;;17.70;99.90;;;;;;5002640;28;20233;-65
2023/04/17 10:19:35;;;;;;;7.63;6.82;;;18.00;99.90;;;;;;5015202;28;20194;-66
2023/04/17 10:22:19;;;;;;;7.50;6.43;;;18.50;99.90;;;;;;5015030;28;20191;-66
2023/04/17 10:24:47;;;;;;;7.35;6.47;;;19.00;99.90;;;;;;5014662;28;20194;-66
2023/04/17 10:27:39;;;;;;;7.35;6.13;;;19.50;99.90;;;;;;5013588;28;20248;-66
2023/04/17 10:30:12;;;;;;;7.43;6.63;;;19.90;99.90;;;;;;4991799;28;20222;-66
2023/04/17 10:32:42;;;;;;;7.07;6.20;;;20.10;99.90;;;;;;4994706;28;20214;-66
2023/04/17 10:35:18;;;;;;;6.85;6.15;;;20.00;99.90;;;;;;4994564;28;20156;-66
2023/04/17 10:37:49;;;;;;;6.60;5.90;;;19.80;99.90;;;;;;4994524;28;20187;-65
2023/04/17 10:40:23;;;;;;;7.10;6.40;;;19.70;99.90;;;;;;5004418;28;20237;-66
2023/04/17 10:43:21;;;;;;;6.78;5.70;;;19.60;99.90;;;;;;5009073;28;20170;-66
2023/04/17 10:46:07;;;;;;;6.95;5.82;;;19.70;99.90;;;;;;4988849;28;20241;-66
2023/04/17 10:48:37;;;;;;;6.68;5.97;;;19.90;99.90;;;;;;5004026;28;20266;-66
2023/04/17 10:51:25;;;;;;;7.10;6.40;;;20.10;99.90;;;;;;4996780;28;20269;-66
2023/04/17 10:53:59;;;;;;;7.57;6.38;;;20.30;99.90;;;;;;5000651;28;20194;-66
2023/04/17 10:56:25;;;;;;;6.75;6.05;;;20.10;99.90;;;;;;4978370;28;20199;-66
2023/04/17 10:58:59;;;;;;;5.80;5.30;;;20.00;99.90;;;;;;5004887;28;20179;-66
2023/04/17 11:01:49;;;;;;;7.25;6.20;;;19.90;99.90;;;;;;4994489;28;20203;-67
2023/04/17 11:04:36;;;;;;;6.93;5.80;;;20.00;99.90;;;;;;4999756;28;20247;-66
2023/04/17 11:07:02;;;;;;;7.43;6.40;;;20.30;99.90;;;;;;4997427;28;20175;-65
2023/04/17 11:09:32;;;;;;;6.05;5.25;;;20.50;99.90;;;;;;4996257;28;20187;-66
2023/04/17 11:12:02;;;;;;;5.90;4.82;;;20.70;99.90;;;;;;5007365;28;20250;-66
2023/04/17 11:14:29;;;;;;;5.63;5.03;;;20.90;99.90;;;;;;4996958;28;20198;-66
2023/04/17 11:16:54;;;;;;;7.88;5.28;;;21.10;99.90;;;;;;4997702;28;20175;-66
2023/04/17 11:19:25;;;;;;;4.95;4.45;;;21.30;99.90;;;;;;4990480;28;20210;-66
2023/04/17 11:21:56;;;;;;;5.10;4.43;;;21.40;99.90;;;;;;5012057;28;20211;-67
2023/04/17 11:24:22;;;;;;;5.80;5.07;;;21.40;99.90;;;;;;5013307;28;20209;-66
2023/04/17 11:26:48;;;;;;;5.70;5.00;;;21.40;99.90;;;;;;5008410;28;20186;-66
2023/04/17 11:29:19;;;;;;;5.80;5.13;;;21.40;99.90;;;;;;4977569;28;20213;-66
2023/04/17 11:31:45;;;;;;;7.03;5.32;;;21.40;99.90;;;;;;4988244;28;20254;-66
2023/04/17 11:34:12;;;;;;;5.60;5.00;;;21.30;99.90;;;;;;4997088;28;20274;-66
2023/04/17 11:36:38;;;;;;;5.88;5.13;;;21.20;99.90;;;;;;4994012;28;20195;-66
2023/04/17 11:39:08;;;;;;;6.03;5.43;;;21.20;99.90;;;;;;5012337;28;21659;-66
2023/04/17 11:41:41;;;;;;;5.70;5.10;;;21.00;99.90;;;;;;5000732;28;20246;-67
2023/04/17 11:44:14;;;;;;;5.18;4.68;;;20.80;99.90;;;;;;4997564;28;20207;-66
2023/04/17 11:46:39;;;;;;;5.70;5.10;;;20.70;99.90;;;;;;5007611;28;20193;-66
2023/04/17 11:49:08;;;;;;;6.72;5.25;;;20.60;99.90;;;;;;5010239;28;20175;-66
2023/04/17 11:51:35;;;;;;;5.07;4.57;;;20.60;99.90;;;;;;4997539;28;20270;-65
2023/04/17 11:54:01;;;;;;;4.95;4.45;;;20.70;99.90;;;;;;4981214;28;20190;-66
2023/04/17 11:56:29;;;;;;;5.10;4.60;;;20.80;99.90;;;;;;4986705;28;20194;-65
2023/04/17 11:58:59;;;;;;;5.00;4.43;;;20.90;99.90;;;;;;5000723;28;20217;-66
2023/04/17 12:01:26;;;;;;;5.00;4.50;;;20.90;99.90;;;;;;5000576;28;20183;-66
2023/04/17 12:03:55;;;;;;;4.70;4.20;;;21.10;99.90;;;;;;5017128;28;20207;-66
2023/04/17 12:06:21;;;;;;;4.50;4.10;;;21.10;99.90;;;;;;5003171;28;20176;-66
2023/04/17 12:08:49;;;;;;;4.38;3.83;;;21.10;99.90;;;;;;4999176;28;20191;-66
2023/04/17 12:11:31;;;;;;;4.50;3.88;;;20.90;99.90;;;;;;5016557;28;20195;-66
2023/04/17 12:14:01;;;;;;;4.78;4.30;;;20.80;99.90;;;;;;5016480;28;20186;-64
2023/04/17 12:16:28;;;;;;;6.03;4.63;;;20.60;99.90;;;;;;5011946;28;20199;-65
2023/04/17 12:18:56;;;;;;;5.40;4.35;;;20.40;99.90;;;;;;5008186;28;20218;-66
2023/04/17 12:21:25;;;;;;;5.30;4.43;;;20.20;99.90;;;;;;5015866;28;20179;-66
2023/04/17 12:23:50;;;;;;;5.75;4.68;;;20.00;99.90;;;;;;5006397;28;20221;-66
2023/04/17 12:26:16;;;;;;;5.93;4.68;;;19.80;99.90;;;;;;5012136;28;20182;-66
2023/04/17 12:28:42;;;;;;;4.85;4.35;;;19.60;99.90;;;;;;5010146;28;20202;-66
2023/04/17 12:31:10;;;;;;;5.45;4.20;;;19.60;99.90;;;;;;5010923;28;20199;-65
2023/04/17 12:33:35;;;;;;;4.40;4.00;;;19.60;99.90;;;;;;4996158;28;20175;-65
2023/04/17 12:36:02;;;;;;;5.47;4.63;;;19.50;99.90;;;;;;5005401;28;20233;-66